Latest Weather Observations for Sydney Harbour

IDN60801

Issued at 1:33 pm EDT Friday 6 March 2015 (issued every 30 minutes, with the page automatically refreshed every 10 minutes)

About weather observations | Map of weather stations | Latest weather observations for NSW | Other Formats
Station Details ID: 066196 Name: WEDDING CAKE WEST Lat: -33.84 Lon: 151.26 Height: 6.0 m
Data from the previous 72 hours. | See also: Recent months for locations in New South Wales
Date/Time
EDT
Temp
°C
App
Temp
°C
Dew
Point
Rel
Hum
%
Delta-T
°C
Wind Press
QNH
hPa
Press
MSL
hPa
Rain
since 9 am
mm
Dir
 
Spd
km/h
Gust
km/h
Spd
kts
Gust
kts
06/01:30pm 25.2 - - - - WSW 26 33 14 18 - - -
06/01:00pm 24.5 - - - - WSW 28 37 15 20 - - -
06/12:30pm 23.8 - - - - W 28 41 15 22 - - -
06/12:00pm 22.8 - - - - W 24 35 13 19 - - -
06/11:30am 22.1 - - - - W 26 35 14 19 - - -
06/11:00am 21.4 - - - - W 22 30 12 16 - - -
06/10:30am 20.8 - - - - W 22 30 12 16 - - -
06/10:00am 20.6 - - - - W 24 35 13 19 - - -
06/09:30am 20.2 - - - - WNW 17 28 9 15 - - -
06/09:00am 19.0 - - - - N 19 24 10 13 - - -
06/08:30am 18.2 - - - - NNW 19 30 10 16 - - -
06/08:00am 17.5 - - - - NNW 19 28 10 15 - - -
06/07:30am 17.3 - - - - NNW 11 17 6 9 - - -
06/07:00am 17.2 - - - - NNW 11 15 6 8 - - -
06/06:30am 17.2 - - - - WNW 11 20 6 11 - - -
06/06:00am 17.4 - - - - NW 15 20 8 11 - - -
06/05:30am 17.5 - - - - NNW 15 22 8 12 - - -
06/05:00am 17.6 - - - - NNW 13 19 7 10 - - -
06/04:30am 17.6 - - - - NW 11 15 6 8 - - -
06/04:00am 17.9 - - - - WNW 17 20 9 11 - - -
06/03:30am 17.9 - - - - WNW 20 26 11 14 - - -
06/03:00am 18.2 - - - - WNW 15 17 8 9 - - -
06/02:30am 18.5 - - - - WNW 17 20 9 11 - - -
06/02:00am 18.6 - - - - WNW 17 20 9 11 - - -
06/01:30am 19.0 - - - - W 17 20 9 11 - - -
06/01:00am 19.4 - - - - WNW 19 22 10 12 - - -
06/12:30am 19.9 - - - - SW 11 13 6 7 - - -
06/12:00am 20.4 - - - - SW 11 13 6 7 - - -
 
Date/Time
EDT
Temp
°C
App
Temp
°C
Dew
Point
Rel
Hum
%
Delta-T
°C
Wind Press
QNH
hPa
Press
MSL
hPa
Rain
since 9 am
mm
Dir
 
Spd
km/h
Gust
km/h
Spd
kts
Gust
kts
05/11:30pm 20.3 - - - - SSW 7 7 4 4 - - -
05/11:00pm 20.4 - - - - S 9 11 5 6 - - -
05/10:30pm 20.5 - - - - S 15 20 8 11 - - -
05/10:00pm 20.5 - - - - SSE 15 20 8 11 - - -
05/09:30pm 20.4 - - - - S 19 24 10 13 - - -
05/09:00pm 20.5 - - - - SSE 22 30 12 16 - - -
05/08:30pm 20.6 - - - - SSE 19 28 10 15 - - -
05/08:00pm 20.7 - - - - SSE 24 32 13 17 - - -
05/07:30pm 20.8 - - - - SSE 26 33 14 18 - - -
05/07:00pm 21.2 - - - - S 28 37 15 20 - - -
05/06:30pm 21.3 - - - - S 30 41 16 22 - - -
05/06:00pm 21.6 - - - - SSE 30 41 16 22 - - -
05/05:43pm 21.7 - - - - SSE 32 50 17 27 - - -
05/05:30pm 21.6 - - - - SSE 32 44 17 24 - - -
05/05:11pm 21.4 - - - - SSE 35 54 19 29 - - -
05/05:00pm 21.2 - - - - SSE 41 54 22 29 - - -
05/04:30pm 21.5 - - - - SSE 37 50 20 27 - - -
05/04:00pm 21.5 - - - - SSE 35 46 19 25 - - -
05/03:30pm 21.4 - - - - SSE 30 44 16 24 - - -
05/03:00pm 21.3 - - - - S 35 46 19 25 - - -
05/02:30pm 21.3 - - - - S 39 54 21 29 - - -
05/02:00pm 21.9 - - - - SSE 37 52 20 28 - - -
05/01:30pm 22.1 - - - - SSE 43 61 23 33 - - -
05/01:28pm 22.1 - - - - S 43 61 23 33 - - -
05/01:21pm 22.0 - - - - SW 35 52 19 28 - - -
05/01:02pm 25.1 - - - - SW 32 52 17 28 - - -
05/01:00pm 25.1 - - - - SW 32 46 17 25 - - -
05/12:58pm 24.9 - - - - SW 32 46 17 25 - - -
05/12:30pm 24.7 - - - - WSW 32 52 17 28 - - -
05/12:22pm 24.8 - - - - WSW 32 50 17 27 - - -
05/12:00pm 24.6 - - - - WSW 33 46 18 25 - - -
05/11:30am 24.1 - - - - SW 35 44 19 24 - - -
05/11:00am 24.7 - - - - WSW 28 43 15 23 - - -
05/10:30am 24.7 - - - - SW 22 35 12 19 - - -
05/10:00am 24.1 - - - - SW 28 39 15 21 - - -
05/09:30am 24.5 - - - - WSW 32 44 17 24 - - -
05/09:00am 24.5 - - - - WSW 20 30 11 16 - - -
05/08:30am 24.1 - - - - WSW 17 24 9 13 - - -
05/08:00am 22.9 - - - - SW 19 20 10 11 - - -
05/07:30am 21.9 - - - - WSW 15 22 8 12 - - -
05/07:00am 21.4 - - - - WSW 17 20 9 11 - - -
05/06:30am 21.3 - - - - WSW 20 24 11 13 - - -
05/06:00am 21.5 - - - - WSW 15 20 8 11 - - -
05/05:30am 21.6 - - - - SSW 9 13 5 7 - - -
05/05:00am 21.8 - - - - SW 6 9 3 5 - - -
05/04:30am 22.0 - - - - W 13 17 7 9 - - -
05/04:00am 22.1 - - - - NNE 7 11 4 6 - - -
05/03:30am 22.1 - - - - CALM 0 0 0 0 - - -
05/03:00am 22.1 - - - - NNE 7 9 4 5 - - -
05/02:30am 22.2 - - - - CALM 0 0 0 0 - - -
05/02:00am 22.7 - - - - CALM 0 0 0 0 - - -
05/01:30am 22.1 - - - - CALM 0 0 0 0 - - -
05/01:00am 22.3 - - - - CALM 0 0 0 0 - - -
05/12:30am 22.8 - - - - NNE 7 9 4 5 - - -
05/12:00am 22.5 - - - - NNE 7 9 4 5 - - -
 
Date/Time
EDT
Temp
°C
App
Temp
°C
Dew
Point
Rel
Hum
%
Delta-T
°C
Wind Press
QNH
hPa
Press
MSL
hPa
Rain
since 9 am
mm
Dir
 
Spd
km/h
Gust
km/h
Spd
kts
Gust
kts
04/11:30pm 22.3 - - - - NNE 7 7 4 4 - - -
04/11:00pm 22.7 - - - - NNE 7 9 4 5 - - -
04/10:30pm 22.6 - - - - NNE 7 9 4 5 - - -
04/10:00pm 23.3 - - - - NNE 9 11 5 6 - - -
04/09:30pm 23.3 - - - - N 11 13 6 7 - - -
04/09:00pm 23.0 - - - - N 17 20 9 11 - - -
04/08:30pm 22.9 - - - - NE 13 15 7 8 - - -
04/08:00pm 22.9 - - - - NNE 15 17 8 9 - - -
04/07:30pm 23.3 - - - - NNE 17 20 9 11 - - -
04/07:00pm 23.3 - - - - NE 17 20 9 11 - - -
04/06:30pm 23.5 - - - - NE 19 20 10 11 - - -
04/06:00pm 23.6 - - - - NE 15 17 8 9 - - -
04/05:30pm 24.0 - - - - ENE 17 22 9 12 - - -
04/05:00pm 24.9 - - - - E 15 17 8 9 - - -
04/04:30pm 24.9 - - - - E 17 19 9 10 - - -
04/04:00pm 24.9 - - - - E 17 20 9 11 - - -
04/03:30pm 25.0 - - - - E 17 19 9 10 - - -
04/03:00pm 25.4 - - - - ESE 13 15 7 8 - - -
04/02:30pm 25.0 - - - - SE 13 19 7 10 - - -
04/02:00pm 25.1 - - - - SE 15 20 8 11 - - -
04/01:30pm 25.4 - - - - SSE 6 9 3 5 - - -
04/01:00pm 24.4 - - - - SSE 6 9 3 5 - - -
04/12:30pm 24.1 - - - - S 11 13 6 7 - - -
04/12:00pm 23.5 - - - - S 13 15 7 8 - - -
04/11:30am 23.3 - - - - S 15 19 8 10 - - -
04/11:00am 23.1 - - - - S 15 17 8 9 - - -
04/10:30am 23.2 - - - - S 15 19 8 10 - - -
04/10:00am 23.0 - - - - SW 13 15 7 8 - - -
04/09:30am 22.9 - - - - SW 13 15 7 8 - - -
04/09:00am 22.4 - - - - SW 13 13 7 7 - - -
04/08:30am 22.1 - - - - SW 15 15 8 8 - - -
04/08:00am 22.0 - - - - SW 13 15 7 8 - - -
04/07:30am 22.0 - - - - WSW 15 17 8 9 - - -
04/07:00am 21.8 - - - - SW 17 19 9 10 - - -
04/06:30am 22.0 - - - - SW 17 20 9 11 - - -
04/06:00am 22.0 - - - - SW 17 20 9 11 - - -
04/05:30am 22.0 - - - - SSW 17 20 9 11 - - -
04/05:00am 22.1 - - - - SSW 15 20 8 11 - - -
04/04:30am 22.2 - - - - SSW 17 19 9 10 - - -
04/04:00am 22.1 - - - - SW 13 17 7 9 - - -
04/03:30am 22.2 - - - - SW 13 15 7 8 - - -
04/03:00am 22.5 - - - - SSW 13 15 7 8 - - -
04/02:30am 22.7 - - - - S 17 19 9 10 - - -
04/02:00am 22.9 - - - - NE 2 6 1 3 - - -
04/01:30am 23.0 - - - - NE 6 7 3 4 - - -
04/01:00am 22.9 - - - - NE 6 7 3 4 - - -
04/12:30am 22.9 - - - - NE 7 9 4 5 - - -
04/12:00am 22.8 - - - - NE 2 7 1 4 - - -
 
Date/Time
EDT
Temp
°C
App
Temp
°C
Dew
Point
Rel
Hum
%
Delta-T
°C
Wind Press
QNH
hPa
Press
MSL
hPa
Rain
since 9 am
mm
Dir
 
Spd
km/h
Gust
km/h
Spd
kts
Gust
kts
03/11:30pm 22.6 - - - - CALM 0 0 0 0 - - -
03/11:00pm 22.7 - - - - CALM 0 0 0 0 - - -
03/10:30pm 23.1 - - - - NE 6 7 3 4 - - -
03/10:00pm 23.1 - - - - NE 9 13 5 7 - - -
03/09:30pm 23.0 - - - - NE 11 13 6 7 - - -
03/09:00pm 23.1 - - - - NE 13 15 7 8 - - -
03/08:30pm 23.1 - - - - NE 15 19 8 10 - - -
03/08:00pm 23.0 - - - - NE 17 20 9 11 - - -
03/07:30pm 23.0 - - - - NE 15 20 8 11 - - -
03/07:00pm 22.9 - - - - NNE 19 20 10 11 - - -
03/06:30pm 22.9 - - - - NE 20 24 11 13 - - -
03/06:00pm 22.9 - - - - NE 19 24 10 13 - - -
03/05:30pm 22.9 - - - - NE 24 28 13 15 - - -
03/05:00pm 22.7 - - - - NE 26 32 14 17 - - -
03/04:30pm 22.9 - - - - NE 26 30 14 16 - - -
03/04:00pm 22.7 - - - - NE 26 32 14 17 - - -
03/03:30pm 22.6 - - - - NE 30 33 16 18 - - -
03/03:00pm 22.5 - - - - NE 30 33 16 18 - - -
03/02:30pm 22.6 - - - - NE 32 35 17 19 - - -
03/02:00pm 22.5 - - - - NE 30 33 16 18 - - -

Other Formats:

Comma delimited format used in spreadsheet applications
http://www.bom.gov.au/fwo/IDN60801/IDN60801.95766.axf

JavaScript Object Notation format (JSON) in row-major order
http://www.bom.gov.au/fwo/IDN60801/IDN60801.95766.json